createdAt,value
2019-05-20T00:00:18.850Z,12.47
2019-05-20T00:02:47.727Z,13.40
2019-05-20T00:05:16.589Z,14.07
2019-05-20T00:07:45.448Z,13.93
2019-05-20T00:10:14.625Z,13.30
2019-05-20T00:12:43.531Z,13.03
2019-05-20T00:15:12.525Z,13.43
2019-05-20T00:17:41.279Z,12.37
2019-05-20T00:20:10.507Z,11.80
2019-05-20T00:22:39.328Z,13.60
2019-05-20T00:25:08.530Z,13.90
2019-05-20T00:27:37.464Z,13.67
2019-05-20T00:30:06.868Z,13.07
2019-05-20T00:32:41.076Z,12.90
2019-05-20T00:35:07.831Z,12.87
2019-05-20T00:37:36.909Z,12.63
2019-05-20T00:40:07.756Z,13.13
2019-05-20T00:42:36.601Z,13.73
2019-05-20T00:45:06.578Z,12.60
2019-05-20T00:47:35.446Z,13.17
2019-05-20T00:50:05.632Z,12.77
2019-05-20T00:52:34.498Z,12.23
2019-05-20T00:55:03.279Z,13.47
2019-05-20T00:57:32.192Z,12.30
2019-05-20T01:00:01.052Z,13.63
2019-05-20T01:02:29.953Z,12.20
2019-05-20T01:04:59.545Z,13.47
2019-05-20T01:07:28.419Z,13.23
2019-05-20T01:09:57.153Z,12.77
2019-05-20T01:12:26.067Z,13.33
2019-05-20T01:14:54.840Z,12.40
2019-05-20T01:17:23.602Z,13.40
2019-05-20T01:19:52.395Z,12.80
2019-05-20T01:22:21.187Z,13.57
2019-05-20T01:24:49.960Z,13.33
2019-05-20T01:27:18.879Z,12.23
2019-05-20T01:29:47.731Z,12.67
2019-05-20T01:32:16.647Z,13.43
2019-05-20T01:34:45.539Z,13.13
2019-05-20T01:37:14.412Z,12.77
2019-05-20T01:39:43.281Z,12.30
2019-05-20T01:42:12.190Z,13.93
2019-05-20T01:44:41.093Z,13.40
2019-05-20T01:47:09.817Z,13.17
2019-05-20T01:49:38.810Z,13.33
2019-05-20T01:52:07.757Z,13.03
2019-05-20T01:54:36.847Z,13.23
2019-05-20T01:57:05.960Z,14.07
2019-05-20T01:59:34.815Z,14.10
2019-05-20T02:02:03.666Z,13.80
2019-05-20T02:04:32.552Z,12.37
2019-05-20T02:07:01.437Z,13.00
2019-05-20T02:09:30.312Z,13.07
2019-05-20T02:11:59.198Z,13.17
2019-05-20T02:14:29.601Z,13.07
2019-05-20T02:16:58.459Z,12.53
2019-05-20T02:19:27.328Z,12.50
2019-05-20T02:21:56.186Z,12.73
2019-05-20T02:24:25.334Z,13.27
2019-05-20T02:26:54.272Z,13.33
2019-05-20T02:29:23.049Z,13.00
2019-05-20T02:31:51.877Z,12.97
2019-05-20T02:34:20.711Z,12.53
2019-05-20T02:36:49.555Z,12.60
2019-05-20T02:39:18.430Z,13.00
2019-05-20T02:41:47.312Z,12.37
2019-05-20T02:44:16.160Z,13.50
2019-05-20T02:46:45.065Z,12.97
2019-05-20T02:49:13.991Z,13.27
2019-05-20T02:51:42.856Z,13.60
2019-05-20T02:54:11.746Z,13.87
2019-05-20T02:56:40.719Z,12.93
2019-05-20T02:59:09.539Z,14.27
2019-05-20T03:01:38.447Z,18.23
2019-05-20T03:04:12.247Z,20.73
2019-05-20T03:06:39.323Z,22.43
2019-05-20T03:09:12.211Z,21.90
2019-05-20T03:11:39.558Z,19.30
2019-05-20T03:14:08.398Z,16.57
2019-05-20T03:16:37.236Z,14.40
2019-05-20T03:19:06.229Z,15.67
2019-05-20T03:21:35.126Z,14.70
2019-05-20T03:24:04.009Z,14.07
2019-05-20T03:26:32.972Z,13.87
2019-05-20T03:29:01.885Z,13.00
2019-05-20T03:31:30.775Z,14.03
2019-05-20T03:33:59.713Z,13.00
2019-05-20T03:36:28.591Z,13.30
2019-05-20T03:38:57.435Z,13.40
2019-05-20T03:41:26.460Z,12.53
2019-05-20T03:43:55.309Z,13.13
2019-05-20T03:46:24.193Z,12.97
2019-05-20T03:48:53.071Z,13.60
2019-05-20T03:51:21.833Z,13.90
2019-05-20T03:53:50.735Z,13.47
2019-05-20T03:56:19.694Z,13.93
2019-05-20T03:58:48.600Z,14.90
2019-05-20T04:01:17.431Z,15.00
2019-05-20T04:03:46.570Z,14.53
2019-05-20T04:06:15.428Z,14.90
2019-05-20T04:08:44.305Z,15.93
2019-05-20T04:11:13.209Z,15.07
2019-05-20T04:13:42.082Z,14.97
2019-05-20T04:16:10.953Z,13.60
2019-05-20T04:18:39.905Z,13.20
2019-05-20T04:21:08.758Z,14.07
2019-05-20T04:23:37.559Z,14.43
2019-05-20T04:26:06.493Z,14.50
2019-05-20T04:28:35.308Z,13.07
2019-05-20T04:31:04.513Z,14.90
2019-05-20T04:33:33.513Z,14.60
2019-05-20T04:36:04.410Z,13.37
2019-05-20T04:38:32.945Z,14.17
2019-05-20T04:41:04.739Z,14.27
2019-05-20T04:43:33.616Z,13.87
2019-05-20T04:46:02.486Z,14.33
2019-05-20T04:48:31.425Z,13.30
2019-05-20T04:51:00.276Z,12.07
2019-05-20T04:53:29.156Z,13.47
2019-05-20T04:55:58.032Z,13.80
2019-05-20T04:58:26.901Z,13.53
2019-05-20T05:00:56.968Z,12.83
2019-05-20T05:03:25.891Z,13.87
2019-05-20T05:05:54.740Z,13.97
2019-05-20T05:08:23.729Z,14.07
2019-05-20T05:10:53.034Z,13.70
2019-05-20T05:13:23.199Z,12.43
2019-05-20T05:15:52.146Z,13.77
2019-05-20T05:18:21.384Z,12.10
2019-05-20T05:20:51.141Z,13.73
2019-05-20T05:23:20.031Z,13.13
2019-05-20T05:25:48.994Z,12.77
2019-05-20T05:28:17.899Z,12.30
2019-05-20T05:30:47.649Z,12.87
2019-05-20T05:33:16.572Z,12.47
2019-05-20T05:35:53.272Z,11.57
2019-05-20T05:38:15.992Z,11.47
2019-05-20T05:40:44.883Z,12.07
2019-05-20T05:43:13.796Z,11.57
2019-05-20T05:45:42.548Z,11.47
2019-05-20T05:48:11.424Z,11.60
2019-05-20T05:50:40.213Z,10.83
2019-05-20T05:53:09.109Z,10.83
2019-05-20T05:55:38.051Z,11.60
2019-05-20T05:58:08.829Z,10.47
2019-05-20T06:00:37.411Z,10.90
2019-05-20T06:03:06.390Z,11.53
2019-05-20T06:05:35.354Z,10.07
2019-05-20T06:08:04.144Z,10.37
2019-05-20T06:10:35.764Z,10.57
2019-05-20T06:13:03.622Z,10.60
2019-05-20T06:15:33.040Z,11.03
2019-05-20T06:18:01.924Z,10.27
2019-05-20T06:20:30.816Z,10.93
2019-05-20T06:22:59.657Z,10.13
2019-05-20T06:25:28.492Z,10.03
2019-05-20T06:27:57.250Z,10.20
2019-05-20T06:30:29.023Z,9.77
2019-05-20T06:32:57.841Z,10.13
2019-05-20T06:35:26.668Z,9.90
2019-05-20T06:37:57.057Z,10.53
2019-05-20T06:40:25.895Z,10.53
2019-05-20T06:42:54.770Z,9.43
2019-05-20T06:45:23.504Z,8.77
2019-05-20T06:47:52.347Z,9.63
2019-05-20T06:50:21.110Z,9.37
2019-05-20T06:52:49.915Z,10.10
2019-05-20T06:55:18.717Z,9.47
2019-05-20T06:57:47.512Z,9.50
2019-05-20T07:00:19.307Z,9.63
2019-05-20T07:02:48.209Z,8.67
2019-05-20T07:05:16.955Z,9.23
2019-05-20T07:07:45.804Z,9.63
2019-05-20T07:10:14.882Z,10.10
2019-05-20T07:12:43.612Z,9.77
2019-05-20T07:15:12.555Z,9.40
2019-05-20T07:17:41.532Z,9.57
2019-05-20T07:20:10.753Z,9.50
2019-05-20T07:22:54.507Z,9.43
2019-05-20T07:25:10.182Z,9.00
2019-05-20T07:27:38.987Z,10.37
2019-05-20T07:30:08.218Z,9.40
2019-05-20T07:32:37.128Z,9.93
2019-05-20T07:35:07.694Z,9.03
2019-05-20T07:37:36.829Z,8.03
2019-05-20T07:40:06.974Z,9.10
2019-05-20T07:42:35.752Z,9.50
2019-05-20T07:45:08.893Z,8.60
2019-05-20T07:47:38.089Z,8.37
2019-05-20T07:50:11.347Z,8.43
2019-05-20T07:52:40.111Z,7.20
2019-05-20T07:55:09.178Z,7.57
2019-05-20T07:57:40.894Z,8.27
2019-05-20T08:00:10.362Z,7.13
2019-05-20T08:02:39.595Z,7.50
2019-05-20T08:05:09.988Z,8.13
2019-05-20T08:07:51.141Z,8.03
2019-05-20T08:10:09.893Z,7.97
2019-05-20T08:12:38.752Z,7.80
2019-05-20T08:15:08.902Z,6.93
2019-05-20T08:17:37.806Z,7.00
2019-05-20T08:20:07.827Z,6.27
2019-05-20T08:22:36.560Z,6.87
2019-05-20T08:25:07.196Z,7.00
2019-05-20T08:27:35.942Z,6.53
2019-05-20T08:30:08.059Z,6.13
2019-05-20T08:32:36.957Z,7.03
2019-05-20T08:35:09.192Z,6.30
2019-05-20T08:37:45.549Z,6.37
2019-05-20T08:40:08.695Z,6.03
2019-05-20T08:42:37.480Z,5.93
2019-05-20T08:45:07.871Z,6.10
2019-05-20T08:47:36.689Z,4.90
2019-05-20T08:50:13.138Z,4.63
2019-05-20T08:52:37.854Z,4.87
2019-05-20T08:55:07.021Z,4.53
2019-05-20T08:57:35.787Z,4.97
2019-05-20T09:00:05.747Z,4.63
2019-05-20T09:02:34.642Z,4.53
2019-05-20T09:05:03.624Z,4.80
2019-05-20T09:07:32.404Z,5.30
2019-05-20T09:10:01.289Z,5.53
2019-05-20T09:12:30.117Z,5.53
2019-05-20T09:14:58.944Z,6.00
2019-05-20T09:17:27.858Z,5.50
2019-05-20T09:19:56.648Z,5.40
2019-05-20T09:22:25.456Z,6.13
2019-05-20T09:24:54.397Z,5.90
2019-05-20T09:27:23.267Z,7.27
2019-05-20T09:29:52.021Z,5.60
2019-05-20T09:32:20.920Z,5.90
2019-05-20T09:34:49.765Z,5.97
2019-05-20T09:37:18.513Z,5.43
2019-05-20T09:39:47.427Z,6.40
2019-05-20T09:42:16.201Z,6.63
2019-05-20T09:44:44.976Z,6.27
2019-05-20T09:47:13.911Z,6.57
2019-05-20T09:49:42.779Z,6.40
2019-05-20T09:52:11.603Z,5.20
2019-05-20T09:54:40.468Z,6.23
2019-05-20T09:57:09.322Z,6.40
2019-05-20T09:59:43.237Z,5.60
2019-05-20T10:02:08.682Z,5.20
2019-05-20T10:04:37.518Z,5.27
2019-05-20T10:07:06.288Z,6.20
2019-05-20T10:09:35.204Z,6.33
2019-05-20T10:12:04.059Z,5.70
2019-05-20T10:14:32.833Z,6.13
2019-05-20T10:17:01.912Z,6.13
2019-05-20T10:19:31.078Z,7.00
2019-05-20T10:21:59.914Z,6.60
2019-05-20T10:24:28.799Z,6.17
2019-05-20T10:26:57.713Z,6.70
2019-05-20T10:29:26.551Z,6.27
2019-05-20T10:31:55.490Z,6.80
2019-05-20T10:34:24.279Z,6.47
2019-05-20T10:36:53.115Z,6.10
2019-05-20T10:39:21.974Z,6.70
2019-05-20T10:41:50.921Z,6.93
2019-05-20T10:44:19.701Z,6.77
2019-05-20T10:46:48.585Z,6.17
2019-05-20T10:49:17.406Z,5.80
2019-05-20T10:51:46.249Z,5.80
2019-05-20T10:54:15.125Z,6.13
2019-05-20T10:56:43.890Z,5.83
2019-05-20T10:59:12.799Z,5.90
2019-05-20T11:01:41.657Z,5.53
2019-05-20T11:04:10.498Z,5.67
2019-05-20T11:06:39.258Z,5.90
2019-05-20T11:09:14.183Z,5.30
2019-05-20T11:11:39.495Z,5.30
2019-05-20T11:14:08.470Z,5.87
2019-05-20T11:16:37.431Z,5.83
2019-05-20T11:19:06.291Z,5.87
2019-05-20T11:21:35.105Z,6.30
2019-05-20T11:24:03.991Z,6.73
2019-05-20T11:26:32.758Z,6.37
2019-05-20T11:29:01.985Z,6.13
2019-05-20T11:31:30.792Z,6.20
2019-05-20T11:33:59.602Z,6.60
2019-05-20T11:36:28.339Z,6.37
2019-05-20T11:38:57.199Z,5.80
2019-05-20T11:41:52.042Z,6.50
2019-05-20T11:43:56.458Z,6.23
2019-05-20T11:46:25.347Z,6.10
2019-05-20T11:48:54.198Z,6.70
2019-05-20T11:51:23.107Z,6.20
2019-05-20T11:53:51.983Z,6.17
2019-05-20T11:56:20.834Z,5.93
2019-05-20T11:58:49.641Z,5.80
2019-05-20T12:01:18.522Z,6.57
2019-05-20T12:03:47.366Z,6.17
2019-05-20T12:06:16.107Z,6.50
2019-05-20T12:08:45.025Z,6.17
2019-05-20T12:11:13.890Z,5.80
2019-05-20T12:13:42.755Z,6.50
2019-05-20T12:16:11.626Z,5.77
2019-05-20T12:18:40.435Z,5.67
2019-05-20T12:21:09.529Z,5.30
2019-05-20T12:23:38.446Z,6.57
2019-05-20T12:26:07.284Z,5.73
2019-05-20T12:28:36.143Z,5.83
2019-05-20T12:31:05.024Z,6.30
2019-05-20T12:33:33.843Z,5.43
2019-05-20T12:36:02.662Z,7.13
2019-05-20T12:38:31.466Z,6.23
2019-05-20T12:41:00.343Z,5.83
2019-05-20T12:43:29.145Z,6.57
2019-05-20T12:45:58.031Z,6.83
2019-05-20T12:48:26.887Z,7.40
2019-05-20T12:50:55.719Z,6.63
2019-05-20T12:53:24.530Z,6.10
2019-05-20T12:55:53.320Z,6.10
2019-05-20T12:58:22.064Z,6.27
2019-05-20T13:00:51.237Z,5.43
2019-05-20T13:03:20.067Z,5.93
2019-05-20T13:05:48.940Z,6.27
2019-05-20T13:08:17.833Z,6.23
2019-05-20T13:10:46.662Z,6.13
2019-05-20T13:13:15.506Z,6.43
2019-05-20T13:15:44.454Z,6.50
2019-05-20T13:18:13.188Z,5.87
2019-05-20T13:20:43.028Z,6.50
2019-05-20T13:23:14.422Z,6.37
2019-05-20T13:25:42.479Z,6.03
2019-05-20T13:28:11.303Z,6.57
2019-05-20T13:30:40.227Z,7.07
2019-05-20T13:33:09.086Z,7.23
2019-05-20T13:35:37.826Z,6.10
2019-05-20T13:38:06.718Z,6.60
2019-05-20T13:40:45.974Z,6.67
2019-05-20T13:43:06.164Z,6.73
2019-05-20T13:45:34.984Z,7.60
2019-05-20T13:48:03.826Z,7.90
2019-05-20T13:50:32.592Z,7.73
2019-05-20T13:53:01.475Z,7.20
2019-05-20T13:55:30.324Z,8.03
2019-05-20T13:57:59.521Z,7.47
2019-05-20T14:00:28.542Z,8.10
2019-05-20T14:03:01.434Z,9.10
2019-05-20T14:22:56.321Z,7.53
2019-05-20T14:25:30.305Z,7.03
2019-05-20T14:34:35.195Z,6.57
2019-05-20T14:37:04.540Z,5.90
2019-05-20T14:39:33.755Z,7.00
2019-05-20T14:42:02.855Z,6.17
2019-05-20T14:44:32.000Z,5.50
2019-05-20T14:47:01.178Z,6.33
2019-05-20T14:49:30.075Z,6.73
2019-05-20T14:51:59.171Z,6.87
2019-05-20T14:54:28.590Z,6.30
2019-05-20T14:56:57.531Z,5.87
2019-05-20T14:59:26.353Z,5.23
2019-05-20T15:01:55.236Z,5.33
2019-05-20T15:04:24.120Z,5.43
2019-05-20T15:06:53.088Z,6.60
2019-05-20T15:09:22.022Z,5.53
2019-05-20T15:11:51.008Z,6.03
2019-05-20T15:14:19.987Z,5.50
2019-05-20T15:16:48.882Z,5.63
2019-05-20T15:19:17.712Z,5.57
2019-05-20T15:21:46.857Z,5.67
2019-05-20T15:24:15.822Z,6.10
2019-05-20T15:26:44.789Z,6.23
2019-05-20T15:29:26.961Z,5.93
2019-05-20T15:31:44.212Z,5.43
2019-05-20T15:34:13.087Z,6.27
2019-05-20T15:36:41.958Z,6.20
2019-05-20T15:39:10.808Z,5.53
2019-05-20T15:41:39.746Z,5.87
2019-05-20T15:44:08.588Z,5.90
2019-05-20T15:46:37.443Z,6.53
2019-05-20T15:49:06.367Z,6.80
2019-05-20T15:51:35.437Z,6.27
2019-05-20T15:54:04.535Z,5.93
2019-05-20T15:56:33.778Z,5.93
2019-05-20T15:59:02.603Z,5.67
2019-05-20T16:01:31.624Z,8.13
2019-05-20T16:04:00.484Z,6.50
2019-05-20T16:06:29.293Z,6.23
2019-05-20T16:08:58.409Z,6.40
2019-05-20T16:11:27.247Z,5.77
2019-05-20T16:13:56.114Z,5.83
2019-05-20T16:16:24.986Z,5.93
2019-05-20T16:18:53.830Z,6.53
2019-05-20T16:21:22.693Z,6.33
2019-05-20T16:23:51.661Z,6.27
2019-05-20T16:26:20.543Z,6.27
2019-05-20T16:28:49.371Z,6.70
2019-05-20T16:31:18.329Z,5.73
2019-05-20T16:33:48.104Z,6.37
2019-05-20T16:36:16.878Z,6.40
2019-05-20T16:38:45.724Z,5.60
2019-05-20T16:41:14.811Z,6.13
2019-05-20T16:43:43.635Z,6.23
2019-05-20T16:46:12.459Z,6.80
2019-05-20T16:48:41.310Z,6.73
2019-05-20T16:51:11.511Z,6.17
2019-05-20T16:53:40.394Z,7.87
2019-05-20T16:56:09.270Z,6.87
2019-05-20T16:58:39.019Z,7.20
2019-05-20T17:01:07.927Z,7.33
2019-05-20T17:03:36.905Z,7.53
2019-05-20T17:06:05.681Z,7.47
2019-05-20T17:08:34.591Z,6.90
2019-05-20T17:11:05.267Z,7.00
2019-05-20T17:13:34.222Z,6.93
2019-05-20T17:16:03.272Z,6.87
2019-05-20T17:18:32.235Z,7.23
2019-05-20T17:21:02.376Z,7.17
2019-05-20T17:23:31.531Z,6.80
2019-05-20T17:26:02.432Z,7.60
2019-05-20T17:28:31.530Z,7.07
2019-05-20T17:31:00.654Z,6.43
2019-05-20T17:33:29.831Z,6.73
2019-05-20T17:35:58.819Z,7.53
2019-05-20T17:38:29.431Z,6.97
2019-05-20T17:40:59.065Z,9.07
2019-05-20T17:43:28.156Z,8.10
2019-05-20T17:45:58.427Z,8.23
2019-05-20T17:48:27.268Z,8.93
2019-05-20T17:50:56.175Z,7.97
2019-05-20T17:53:25.411Z,8.83
2019-05-20T17:55:55.444Z,9.67
2019-05-20T17:58:24.815Z,10.27
2019-05-20T18:00:53.786Z,9.40
2019-05-20T18:03:22.757Z,8.80
2019-05-20T18:05:51.639Z,9.80
2019-05-20T18:08:20.613Z,9.00
2019-05-20T18:10:49.550Z,8.77
2019-05-20T18:13:18.329Z,8.00
2019-05-20T18:15:47.250Z,8.30
2019-05-20T18:18:16.093Z,8.97
2019-05-20T18:20:44.994Z,8.70
2019-05-20T18:23:13.908Z,8.87
2019-05-20T18:25:42.728Z,8.97
2019-05-20T18:28:12.945Z,9.13
2019-05-20T18:30:41.828Z,8.83
2019-05-20T18:33:10.606Z,9.13
2019-05-20T18:35:39.413Z,9.83
2019-05-20T18:38:08.305Z,9.60
2019-05-20T18:40:37.186Z,10.73
2019-05-20T18:43:06.031Z,9.97
2019-05-20T18:45:34.937Z,9.97
2019-05-20T18:48:03.782Z,10.03
2019-05-20T18:50:32.628Z,9.43
2019-05-20T18:53:01.503Z,10.53
2019-05-20T18:55:30.363Z,10.33
2019-05-20T18:57:59.229Z,9.57
2019-05-20T19:00:28.146Z,9.10
2019-05-20T19:02:56.953Z,9.87
2019-05-20T19:05:25.833Z,9.27
2019-05-20T19:07:54.701Z,10.10
2019-05-20T19:10:23.658Z,8.73
2019-05-20T19:12:52.957Z,10.17
2019-05-20T19:15:21.822Z,8.40
2019-05-20T19:17:50.682Z,9.93
2019-05-20T19:20:22.889Z,10.03
2019-05-20T19:22:50.356Z,8.67
2019-05-20T19:25:19.200Z,8.73
2019-05-20T19:27:48.112Z,9.27
2019-05-20T19:30:17.200Z,9.47
2019-05-20T19:32:46.068Z,9.70
2019-05-20T19:35:15.259Z,9.53
2019-05-20T19:37:44.153Z,9.33
2019-05-20T19:40:30.040Z,8.07
2019-05-20T19:42:58.791Z,7.63
2019-05-20T19:45:27.651Z,6.73
2019-05-20T19:47:57.639Z,6.70
2019-05-20T19:50:26.558Z,7.07
2019-05-20T19:52:55.353Z,7.40
2019-05-20T19:55:24.186Z,7.30
2019-05-20T19:57:52.998Z,7.67
2019-05-20T20:00:22.559Z,7.50
2019-05-20T20:02:51.381Z,7.73
2019-05-20T20:05:20.399Z,6.70
2019-05-20T20:07:50.592Z,7.50
2019-05-20T20:10:19.395Z,8.30
2019-05-20T20:12:48.197Z,7.00
2019-05-20T20:15:19.821Z,7.70
2019-05-20T20:17:48.581Z,9.63
2019-05-20T20:20:17.456Z,8.40
2019-05-20T20:22:46.325Z,8.70
2019-05-20T20:25:15.224Z,8.10
2019-05-20T20:27:44.117Z,7.90
2019-05-20T20:30:13.277Z,8.10
2019-05-20T20:32:42.134Z,7.97
2019-05-20T20:35:11.165Z,8.30
2019-05-20T20:37:39.960Z,8.47
2019-05-20T20:40:09.700Z,8.67
2019-05-20T20:42:38.549Z,8.23
2019-05-20T20:45:07.560Z,7.47
2019-05-20T20:47:41.944Z,9.20
2019-05-20T20:50:07.352Z,8.63
2019-05-20T20:52:36.205Z,9.23
2019-05-20T20:55:06.873Z,8.20
2019-05-20T20:57:35.941Z,8.60
2019-05-20T21:00:07.971Z,9.23
2019-05-20T21:02:36.797Z,9.20
2019-05-20T21:05:07.274Z,8.50
2019-05-20T21:07:36.125Z,8.87
2019-05-20T21:10:07.648Z,8.90
2019-05-20T21:12:36.561Z,8.37
2019-05-20T21:15:06.518Z,8.73
2019-05-20T21:17:35.256Z,8.73
2019-05-20T21:20:05.598Z,9.27
2019-05-20T21:22:34.384Z,9.00
2019-05-20T21:25:03.165Z,9.87
2019-05-20T21:27:31.998Z,8.00
2019-05-20T21:30:00.721Z,8.47
2019-05-20T21:32:29.487Z,9.10
2019-05-20T21:34:58.387Z,8.80
2019-05-20T21:37:27.197Z,8.70
2019-05-20T21:39:55.947Z,8.67
2019-05-20T21:42:24.800Z,8.43
2019-05-20T21:44:53.545Z,8.87
2019-05-20T21:47:22.382Z,8.87
2019-05-20T21:49:51.200Z,8.63
2019-05-20T21:52:19.972Z,8.30
2019-05-20T21:54:48.811Z,7.90
2019-05-20T21:57:17.656Z,8.37
2019-05-20T21:59:46.421Z,7.80
2019-05-20T22:02:15.167Z,8.83
2019-05-20T22:04:44.091Z,7.80
2019-05-20T22:07:12.932Z,7.43
2019-05-20T22:09:42.159Z,7.43
2019-05-20T22:12:11.003Z,8.33
2019-05-20T22:14:39.837Z,7.87
2019-05-20T22:17:08.689Z,7.40
2019-05-20T22:19:37.570Z,7.27
2019-05-20T22:22:24.306Z,7.03
2019-05-20T22:24:53.221Z,6.97
2019-05-20T22:27:22.138Z,6.80
2019-05-20T22:29:51.048Z,7.20
2019-05-20T22:32:19.963Z,7.73
2019-05-20T22:34:53.449Z,7.23
2019-05-20T22:37:19.397Z,7.63
2019-05-20T22:39:48.497Z,7.60
2019-05-20T22:42:17.257Z,7.63
2019-05-20T22:44:46.507Z,8.00
2019-05-20T22:47:15.787Z,7.93
2019-05-20T22:49:44.625Z,7.97
2019-05-20T22:52:13.431Z,7.30
2019-05-20T22:54:42.217Z,7.27
2019-05-20T22:57:11.035Z,7.13
2019-05-20T22:59:39.784Z,7.03
2019-05-20T23:02:08.634Z,8.13
2019-05-20T23:04:37.395Z,6.40
2019-05-20T23:07:06.215Z,7.73
2019-05-20T23:09:35.515Z,8.50
2019-05-20T23:12:04.366Z,7.03
2019-05-20T23:14:33.209Z,6.70
2019-05-20T23:17:02.108Z,6.63
2019-05-20T23:19:30.879Z,6.80
2019-05-20T23:21:59.930Z,6.97
2019-05-20T23:24:29.160Z,6.87
2019-05-20T23:26:57.908Z,7.40
2019-05-20T23:29:26.936Z,7.20
2019-05-20T23:31:56.140Z,7.17
2019-05-20T23:34:24.966Z,7.03
2019-05-20T23:36:53.817Z,7.30
2019-05-20T23:39:22.555Z,7.80
2019-05-20T23:41:51.334Z,7.33
2019-05-20T23:44:20.202Z,7.03
2019-05-20T23:46:49.073Z,7.27
2019-05-20T23:49:18.189Z,7.60
2019-05-20T23:51:47.467Z,6.87
2019-05-20T23:54:16.344Z,7.00
2019-05-20T23:56:45.589Z,7.40
2019-05-20T23:59:14.426Z,7.03
